SARP/PSS METAR and TAF weather

Enter ICAO airport designator
Station Type Date Time Source
SARP METAR 2018/12/15 20:00 UTC NOAA

SARP 152000Z 07010KT 9999 FEW040 28/21 Q1013


Station Type Date Time Source
SARP Decoded METAR 2018/12/15 20:00 UTC NOAA

Posadas Aero., Argentina (SARP) 27-22S 055-58W 133M
Dec 15, 2018 - 03:00 PM EST / 2018.12.15 2000 UTC
Wind: from the ENE (070 degrees) at 12 MPH (10 KT):0
Visibility: greater than 7 mile(s):0
Sky conditions: mostly clear
Temperature: 82 F (28 C)
Dew Point: 69 F (21 C)
Relative Humidity: 65%
Pressure (altimeter): 29.91 in. Hg (1013 hPa)
ob: SARP 152000Z 07010KT 9999 FEW040 28/21 Q1013
cycle: 20

Station Type Date Time Source
SARP TAF 2018/12/15 18:30 UTC NOAA

TAF SARP 151700Z 1518/1618 14010KT 9999 SCT040 TX34/1618Z TN23/1609Z


Example: see airport list